sensor_id;sensor_type;location;lat;lon;timestamp;temperature;humidity
26821;DHT22;37186;51.394;5.454;2023-04-06T00:01:55;8.60;61.30
26821;DHT22;37186;51.394;5.454;2023-04-06T00:04:56;8.60;61.50
26821;DHT22;37186;51.394;5.454;2023-04-06T00:07:59;8.60;61.40
26821;DHT22;37186;51.394;5.454;2023-04-06T00:11:00;8.60;61.60
26821;DHT22;37186;51.394;5.454;2023-04-06T00:14:01;8.50;61.50
26821;DHT22;37186;51.394;5.454;2023-04-06T00:17:01;8.50;61.50
26821;DHT22;37186;51.394;5.454;2023-04-06T00:20:02;8.50;61.30
26821;DHT22;37186;51.394;5.454;2023-04-06T00:23:03;8.50;61.50
26821;DHT22;37186;51.394;5.454;2023-04-06T00:26:03;8.40;61.40
26821;DHT22;37186;51.394;5.454;2023-04-06T00:29:04;8.40;61.50
26821;DHT22;37186;51.394;5.454;2023-04-06T00:32:05;8.40;61.60
26821;DHT22;37186;51.394;5.454;2023-04-06T00:35:06;8.40;61.60
26821;DHT22;37186;51.394;5.454;2023-04-06T00:38:06;8.30;61.60
26821;DHT22;37186;51.394;5.454;2023-04-06T00:41:07;8.30;61.70
26821;DHT22;37186;51.394;5.454;2023-04-06T00:44:08;8.30;61.50
26821;DHT22;37186;51.394;5.454;2023-04-06T00:47:09;8.20;61.70
26821;DHT22;37186;51.394;5.454;2023-04-06T00:50:09;8.20;61.60
26821;DHT22;37186;51.394;5.454;2023-04-06T00:53:10;8.20;61.60
26821;DHT22;37186;51.394;5.454;2023-04-06T00:56:10;8.20;61.60
26821;DHT22;37186;51.394;5.454;2023-04-06T00:59:12;8.10;61.60
26821;DHT22;37186;51.394;5.454;2023-04-06T01:02:12;8.10;61.60
26821;DHT22;37186;51.394;5.454;2023-04-06T01:05:13;8.10;61.60
26821;DHT22;37186;51.394;5.454;2023-04-06T01:08:13;8.00;61.60
26821;DHT22;37186;51.394;5.454;2023-04-06T01:11:14;8.00;61.60
26821;DHT22;37186;51.394;5.454;2023-04-06T01:14:15;8.00;61.80
26821;DHT22;37186;51.394;5.454;2023-04-06T01:17:16;8.00;62.10
26821;DHT22;37186;51.394;5.454;2023-04-06T01:20:16;8.00;61.80
26821;DHT22;37186;51.394;5.454;2023-04-06T01:23:17;7.90;61.60
26821;DHT22;37186;51.394;5.454;2023-04-06T01:26:17;7.90;61.90
26821;DHT22;37186;51.394;5.454;2023-04-06T01:29:18;7.90;61.80
26821;DHT22;37186;51.394;5.454;2023-04-06T01:32:18;7.90;61.80
26821;DHT22;37186;51.394;5.454;2023-04-06T01:35:19;7.80;61.80
26821;DHT22;37186;51.394;5.454;2023-04-06T01:38:21;7.80;62.10
26821;DHT22;37186;51.394;5.454;2023-04-06T01:41:21;7.80;62.00
26821;DHT22;37186;51.394;5.454;2023-04-06T01:44:22;7.70;61.60
26821;DHT22;37186;51.394;5.454;2023-04-06T01:47:22;7.70;62.00
26821;DHT22;37186;51.394;5.454;2023-04-06T01:50:22;7.70;61.90
26821;DHT22;37186;51.394;5.454;2023-04-06T01:53:23;7.70;62.00
26821;DHT22;37186;51.394;5.454;2023-04-06T01:56:24;7.70;62.00
26821;DHT22;37186;51.394;5.454;2023-04-06T01:59:24;7.70;62.00
26821;DHT22;37186;51.394;5.454;2023-04-06T02:02:25;7.70;62.00
26821;DHT22;37186;51.394;5.454;2023-04-06T02:05:26;7.70;62.30
26821;DHT22;37186;51.394;5.454;2023-04-06T02:08:26;7.70;62.20
26821;DHT22;37186;51.394;5.454;2023-04-06T02:11:27;7.70;62.10
26821;DHT22;37186;51.394;5.454;2023-04-06T02:14:27;7.70;62.20
26821;DHT22;37186;51.394;5.454;2023-04-06T02:17:28;7.60;62.20
26821;DHT22;37186;51.394;5.454;2023-04-06T02:20:29;7.60;62.30
26821;DHT22;37186;51.394;5.454;2023-04-06T02:23:30;7.70;62.50
26821;DHT22;37186;51.394;5.454;2023-04-06T02:26:30;7.60;62.60
26821;DHT22;37186;51.394;5.454;2023-04-06T02:29:31;7.60;62.50
26821;DHT22;37186;51.394;5.454;2023-04-06T02:32:31;7.60;62.10
26821;DHT22;37186;51.394;5.454;2023-04-06T02:35:32;7.70;62.40
26821;DHT22;37186;51.394;5.454;2023-04-06T02:38:32;7.60;62.20
26821;DHT22;37186;51.394;5.454;2023-04-06T02:41:33;7.60;62.10
26821;DHT22;37186;51.394;5.454;2023-04-06T02:44:33;7.60;62.20
26821;DHT22;37186;51.394;5.454;2023-04-06T02:47:34;7.70;62.30
26821;DHT22;37186;51.394;5.454;2023-04-06T02:50:34;7.70;62.20
26821;DHT22;37186;51.394;5.454;2023-04-06T02:53:35;7.70;62.20
26821;DHT22;37186;51.394;5.454;2023-04-06T02:56:35;7.70;62.20
26821;DHT22;37186;51.394;5.454;2023-04-06T02:59:36;7.70;62.20
26821;DHT22;37186;51.394;5.454;2023-04-06T03:02:36;7.70;62.20
26821;DHT22;37186;51.394;5.454;2023-04-06T03:05:37;7.70;62.30
26821;DHT22;37186;51.394;5.454;2023-04-06T03:08:37;7.70;62.30
26821;DHT22;37186;51.394;5.454;2023-04-06T03:11:38;7.70;62.30
26821;DHT22;37186;51.394;5.454;2023-04-06T03:14:38;7.70;62.50
26821;DHT22;37186;51.394;5.454;2023-04-06T03:17:39;7.70;62.30
26821;DHT22;37186;51.394;5.454;2023-04-06T03:20:39;7.70;62.20
26821;DHT22;37186;51.394;5.454;2023-04-06T03:23:41;7.70;62.30
26821;DHT22;37186;51.394;5.454;2023-04-06T03:26:41;7.70;62.30
26821;DHT22;37186;51.394;5.454;2023-04-06T03:29:42;7.70;62.40
26821;DHT22;37186;51.394;5.454;2023-04-06T03:32:45;7.70;62.30
26821;DHT22;37186;51.394;5.454;2023-04-06T03:35:46;7.80;62.50
26821;DHT22;37186;51.394;5.454;2023-04-06T03:38:47;7.80;62.40
26821;DHT22;37186;51.394;5.454;2023-04-06T03:41:47;7.80;62.40
26821;DHT22;37186;51.394;5.454;2023-04-06T03:44:48;7.80;62.40
26821;DHT22;37186;51.394;5.454;2023-04-06T03:47:48;7.80;62.40
26821;DHT22;37186;51.394;5.454;2023-04-06T03:50:49;7.80;62.40
26821;DHT22;37186;51.394;5.454;2023-04-06T03:53:49;7.80;62.40
26821;DHT22;37186;51.394;5.454;2023-04-06T03:56:50;7.80;62.40
26821;DHT22;37186;51.394;5.454;2023-04-06T03:59:50;7.80;62.40
26821;DHT22;37186;51.394;5.454;2023-04-06T04:02:51;7.80;62.40
26821;DHT22;37186;51.394;5.454;2023-04-06T04:05:51;7.80;62.30
26821;DHT22;37186;51.394;5.454;2023-04-06T04:08:52;7.90;62.50
26821;DHT22;37186;51.394;5.454;2023-04-06T04:11:52;7.90;62.40
26821;DHT22;37186;51.394;5.454;2023-04-06T04:14:53;7.90;62.50
26821;DHT22;37186;51.394;5.454;2023-04-06T04:17:53;7.80;62.50
26821;DHT22;37186;51.394;5.454;2023-04-06T04:20:54;7.80;62.40
26821;DHT22;37186;51.394;5.454;2023-04-06T04:23:54;7.80;62.50
26821;DHT22;37186;51.394;5.454;2023-04-06T04:26:55;7.80;62.50
26821;DHT22;37186;51.394;5.454;2023-04-06T04:29:56;7.80;62.50
26821;DHT22;37186;51.394;5.454;2023-04-06T04:32:57;7.80;62.50
26821;DHT22;37186;51.394;5.454;2023-04-06T04:35:57;7.80;62.60
26821;DHT22;37186;51.394;5.454;2023-04-06T04:38:58;7.80;62.50
26821;DHT22;37186;51.394;5.454;2023-04-06T04:42:01;7.80;62.50
26821;DHT22;37186;51.394;5.454;2023-04-06T04:45:01;7.80;62.50
26821;DHT22;37186;51.394;5.454;2023-04-06T04:48:02;7.80;62.50
26821;DHT22;37186;51.394;5.454;2023-04-06T04:51:05;7.80;62.50
26821;DHT22;37186;51.394;5.454;2023-04-06T04:54:06;7.80;62.60
26821;DHT22;37186;51.394;5.454;2023-04-06T04:57:06;7.80;62.70
26821;DHT22;37186;51.394;5.454;2023-04-06T05:00:07;7.80;62.70
26821;DHT22;37186;51.394;5.454;2023-04-06T05:03:08;7.80;62.70
26821;DHT22;37186;51.394;5.454;2023-04-06T05:06:09;7.80;62.70
26821;DHT22;37186;51.394;5.454;2023-04-06T05:09:10;7.80;62.70
26821;DHT22;37186;51.394;5.454;2023-04-06T05:12:10;7.80;62.70
26821;DHT22;37186;51.394;5.454;2023-04-06T05:15:11;7.80;62.70
26821;DHT22;37186;51.394;5.454;2023-04-06T05:18:12;7.80;62.70
26821;DHT22;37186;51.394;5.454;2023-04-06T05:21:12;7.80;62.80
26821;DHT22;37186;51.394;5.454;2023-04-06T05:24:13;7.80;62.70
26821;DHT22;37186;51.394;5.454;2023-04-06T05:27:14;7.80;62.70
26821;DHT22;37186;51.394;5.454;2023-04-06T05:30:14;7.80;62.70
26821;DHT22;37186;51.394;5.454;2023-04-06T05:33:15;7.80;62.90
26821;DHT22;37186;51.394;5.454;2023-04-06T05:36:16;7.80;63.00
26821;DHT22;37186;51.394;5.454;2023-04-06T05:39:17;7.80;62.80
26821;DHT22;37186;51.394;5.454;2023-04-06T05:42:17;7.80;62.80
26821;DHT22;37186;51.394;5.454;2023-04-06T05:45:18;7.80;62.70
26821;DHT22;37186;51.394;5.454;2023-04-06T05:48:18;7.80;62.90
26821;DHT22;37186;51.394;5.454;2023-04-06T05:51:19;7.80;62.70
26821;DHT22;37186;51.394;5.454;2023-04-06T05:54:20;7.80;62.80
26821;DHT22;37186;51.394;5.454;2023-04-06T05:57:20;7.80;62.80
26821;DHT22;37186;51.394;5.454;2023-04-06T06:00:21;7.80;62.80
26821;DHT22;37186;51.394;5.454;2023-04-06T06:03:21;7.80;62.90
26821;DHT22;37186;51.394;5.454;2023-04-06T06:06:23;7.80;62.80
26821;DHT22;37186;51.394;5.454;2023-04-06T06:09:23;7.80;62.80
26821;DHT22;37186;51.394;5.454;2023-04-06T06:12:24;7.80;62.80
26821;DHT22;37186;51.394;5.454;2023-04-06T06:15:24;7.80;62.80
26821;DHT22;37186;51.394;5.454;2023-04-06T06:18:25;7.80;62.80
26821;DHT22;37186;51.394;5.454;2023-04-06T06:21:25;7.90;62.90
26821;DHT22;37186;51.394;5.454;2023-04-06T06:24:26;7.90;62.90
26821;DHT22;37186;51.394;5.454;2023-04-06T06:27:28;7.90;62.80
26821;DHT22;37186;51.394;5.454;2023-04-06T06:30:28;7.90;62.90
26821;DHT22;37186;51.394;5.454;2023-04-06T06:33:29;7.90;62.80
26821;DHT22;37186;51.394;5.454;2023-04-06T06:36:29;8.00;62.80
26821;DHT22;37186;51.394;5.454;2023-04-06T06:39:31;8.00;62.90
26821;DHT22;37186;51.394;5.454;2023-04-06T06:42:32;8.00;63.70
26821;DHT22;37186;51.394;5.454;2023-04-06T06:45:33;8.00;62.90
26821;DHT22;37186;51.394;5.454;2023-04-06T06:48:33;8.10;62.90
26821;DHT22;37186;51.394;5.454;2023-04-06T06:51:34;8.10;62.90
26821;DHT22;37186;51.394;5.454;2023-04-06T06:54:34;8.10;62.90
26821;DHT22;37186;51.394;5.454;2023-04-06T06:57:35;8.10;62.80
26821;DHT22;37186;51.394;5.454;2023-04-06T07:00:35;8.20;62.90
26821;DHT22;37186;51.394;5.454;2023-04-06T07:03:36;8.20;63.00
26821;DHT22;37186;51.394;5.454;2023-04-06T07:06:36;8.20;62.90
26821;DHT22;37186;51.394;5.454;2023-04-06T07:09:37;8.20;62.90
26821;DHT22;37186;51.394;5.454;2023-04-06T07:12:38;8.20;63.00
26821;DHT22;37186;51.394;5.454;2023-04-06T07:15:38;8.30;63.00
26821;DHT22;37186;51.394;5.454;2023-04-06T07:18:38;8.30;63.00
26821;DHT22;37186;51.394;5.454;2023-04-06T07:21:39;8.30;63.00
26821;DHT22;37186;51.394;5.454;2023-04-06T07:24:40;8.40;63.10
26821;DHT22;37186;51.394;5.454;2023-04-06T07:27:40;8.40;63.00
26821;DHT22;37186;51.394;5.454;2023-04-06T07:30:41;8.50;63.10
26821;DHT22;37186;51.394;5.454;2023-04-06T07:33:41;8.50;63.20
26821;DHT22;37186;51.394;5.454;2023-04-06T07:36:42;8.50;63.20
26821;DHT22;37186;51.394;5.454;2023-04-06T07:39:42;8.60;63.20
26821;DHT22;37186;51.394;5.454;2023-04-06T07:42:43;8.60;63.20
26821;DHT22;37186;51.394;5.454;2023-04-06T07:45:43;8.60;63.20
26821;DHT22;37186;51.394;5.454;2023-04-06T07:48:44;8.60;63.30
26821;DHT22;37186;51.394;5.454;2023-04-06T07:51:45;8.70;63.20
26821;DHT22;37186;51.394;5.454;2023-04-06T07:54:45;8.70;63.10
26821;DHT22;37186;51.394;5.454;2023-04-06T07:57:46;8.80;63.30
26821;DHT22;37186;51.394;5.454;2023-04-06T08:00:46;8.80;63.30
26821;DHT22;37186;51.394;5.454;2023-04-06T08:03:47;8.80;63.40
26821;DHT22;37186;51.394;5.454;2023-04-06T08:06:47;8.80;63.20
26821;DHT22;37186;51.394;5.454;2023-04-06T08:09:48;8.90;63.30
26821;DHT22;37186;51.394;5.454;2023-04-06T08:12:48;8.90;63.30
26821;DHT22;37186;51.394;5.454;2023-04-06T08:15:49;8.90;63.30
26821;DHT22;37186;51.394;5.454;2023-04-06T08:18:49;9.00;63.40
26821;DHT22;37186;51.394;5.454;2023-04-06T08:21:50;9.00;63.40
26821;DHT22;37186;51.394;5.454;2023-04-06T08:24:51;9.10;63.50
26821;DHT22;37186;51.394;5.454;2023-04-06T08:27:52;9.10;63.50
26821;DHT22;37186;51.394;5.454;2023-04-06T08:30:52;9.10;63.50
26821;DHT22;37186;51.394;5.454;2023-04-06T08:33:53;9.20;63.50
26821;DHT22;37186;51.394;5.454;2023-04-06T08:36:53;9.20;63.60
26821;DHT22;37186;51.394;5.454;2023-04-06T08:39:54;9.30;63.70
26821;DHT22;37186;51.394;5.454;2023-04-06T08:42:55;9.30;63.60
26821;DHT22;37186;51.394;5.454;2023-04-06T08:45:56;9.40;63.70
26821;DHT22;37186;51.394;5.454;2023-04-06T08:48:58;9.40;63.70
26821;DHT22;37186;51.394;5.454;2023-04-06T08:51:59;9.40;63.70
26821;DHT22;37186;51.394;5.454;2023-04-06T08:55:01;9.50;63.70
26821;DHT22;37186;51.394;5.454;2023-04-06T08:58:01;9.50;63.70
26821;DHT22;37186;51.394;5.454;2023-04-06T09:01:06;9.60;63.70
26821;DHT22;37186;51.394;5.454;2023-04-06T09:04:09;9.60;63.70
26821;DHT22;37186;51.394;5.454;2023-04-06T09:07:10;9.70;63.80
26821;DHT22;37186;51.394;5.454;2023-04-06T09:10:11;9.70;63.70
26821;DHT22;37186;51.394;5.454;2023-04-06T09:13:12;9.70;63.80
26821;DHT22;37186;51.394;5.454;2023-04-06T09:16:12;9.80;63.70
26821;DHT22;37186;51.394;5.454;2023-04-06T09:19:13;9.80;63.80
26821;DHT22;37186;51.394;5.454;2023-04-06T09:22:13;9.80;63.80
26821;DHT22;37186;51.394;5.454;2023-04-06T09:25:22;9.90;63.70
26821;DHT22;37186;51.394;5.454;2023-04-06T09:28:55;9.90;64.60
26821;DHT22;37186;51.394;5.454;2023-04-06T09:32:06;10.00;63.90
26821;DHT22;37186;51.394;5.454;2023-04-06T09:35:08;10.00;63.90
26821;DHT22;37186;51.394;5.454;2023-04-06T09:38:12;10.10;64.00
26821;DHT22;37186;51.394;5.454;2023-04-06T09:41:29;10.10;64.10
26821;DHT22;37186;51.394;5.454;2023-04-06T09:44:30;10.10;64.10
26821;DHT22;37186;51.394;5.454;2023-04-06T09:47:31;10.20;64.10
26821;DHT22;37186;51.394;5.454;2023-04-06T09:50:33;10.20;64.20
26821;DHT22;37186;51.394;5.454;2023-04-06T09:53:37;10.20;64.10
26821;DHT22;37186;51.394;5.454;2023-04-06T10:00:07;10.30;64.20
26821;DHT22;37186;51.394;5.454;2023-04-06T10:03:18;10.30;64.30
26821;DHT22;37186;51.394;5.454;2023-04-06T10:06:23;10.30;64.50
26821;DHT22;37186;51.394;5.454;2023-04-06T10:09:28;10.40;64.40
26821;DHT22;37186;51.394;5.454;2023-04-06T10:12:37;10.40;64.30
26821;DHT22;37186;51.394;5.454;2023-04-06T10:15:38;10.40;64.30
26821;DHT22;37186;51.394;5.454;2023-04-06T10:18:43;10.50;64.60
26821;DHT22;37186;51.394;5.454;2023-04-06T10:21:48;10.50;64.40
26821;DHT22;37186;51.394;5.454;2023-04-06T10:24:50;10.60;64.40
26821;DHT22;37186;51.394;5.454;2023-04-06T10:28:05;10.50;64.50
26821;DHT22;37186;51.394;5.454;2023-04-06T10:31:06;10.60;64.50
26821;DHT22;37186;51.394;5.454;2023-04-06T10:34:06;10.60;64.50
26821;DHT22;37186;51.394;5.454;2023-04-06T10:37:12;10.60;64.60
26821;DHT22;37186;51.394;5.454;2023-04-06T10:40:23;10.70;64.70
26821;DHT22;37186;51.394;5.454;2023-04-06T10:43:25;10.70;64.70
26821;DHT22;37186;51.394;5.454;2023-04-06T10:46:27;10.70;64.80
26821;DHT22;37186;51.394;5.454;2023-04-06T10:49:27;10.70;64.90
26821;DHT22;37186;51.394;5.454;2023-04-06T10:52:28;10.70;64.90
26821;DHT22;37186;51.394;5.454;2023-04-06T10:55:29;10.80;64.90
26821;DHT22;37186;51.394;5.454;2023-04-06T10:58:30;10.70;65.00
26821;DHT22;37186;51.394;5.454;2023-04-06T11:01:31;10.80;65.20
26821;DHT22;37186;51.394;5.454;2023-04-06T11:04:31;10.80;65.30
26821;DHT22;37186;51.394;5.454;2023-04-06T11:07:32;10.80;65.80
26821;DHT22;37186;51.394;5.454;2023-04-06T11:10:33;10.80;65.50
26821;DHT22;37186;51.394;5.454;2023-04-06T11:13:54;10.90;67.00
26821;DHT22;37186;51.394;5.454;2023-04-06T11:16:55;10.90;65.70
26821;DHT22;37186;51.394;5.454;2023-04-06T11:19:56;10.90;66.00
26821;DHT22;37186;51.394;5.454;2023-04-06T11:22:57;10.90;66.10
26821;DHT22;37186;51.394;5.454;2023-04-06T11:25:59;11.00;66.10
26821;DHT22;37186;51.394;5.454;2023-04-06T11:29:00;10.90;65.90
26821;DHT22;37186;51.394;5.454;2023-04-06T11:32:02;11.00;66.20
26821;DHT22;37186;51.394;5.454;2023-04-06T11:35:03;11.00;65.90
26821;DHT22;37186;51.394;5.454;2023-04-06T11:38:04;11.00;66.70
26821;DHT22;37186;51.394;5.454;2023-04-06T11:41:06;11.00;66.30
26821;DHT22;37186;51.394;5.454;2023-04-06T11:44:06;11.00;66.40
26821;DHT22;37186;51.394;5.454;2023-04-06T11:47:08;11.10;66.40
26821;DHT22;37186;51.394;5.454;2023-04-06T11:50:15;11.10;66.80
26821;DHT22;37186;51.394;5.454;2023-04-06T11:53:16;11.10;66.60
26821;DHT22;37186;51.394;5.454;2023-04-06T11:56:24;11.10;66.70
26821;DHT22;37186;51.394;5.454;2023-04-06T11:59:25;11.20;67.30
26821;DHT22;37186;51.394;5.454;2023-04-06T12:02:27;11.20;66.60
26821;DHT22;37186;51.394;5.454;2023-04-06T12:05:28;11.20;66.80
26821;DHT22;37186;51.394;5.454;2023-04-06T12:08:28;11.20;67.00
26821;DHT22;37186;51.394;5.454;2023-04-06T12:11:29;11.20;67.10
26821;DHT22;37186;51.394;5.454;2023-04-06T12:14:29;11.20;67.10
26821;DHT22;37186;51.394;5.454;2023-04-06T12:17:31;11.30;67.10
26821;DHT22;37186;51.394;5.454;2023-04-06T12:20:31;11.30;67.70
26821;DHT22;37186;51.394;5.454;2023-04-06T12:23:32;11.30;67.40
26821;DHT22;37186;51.394;5.454;2023-04-06T12:26:33;11.30;67.80
26821;DHT22;37186;51.394;5.454;2023-04-06T12:29:33;11.30;67.40
26821;DHT22;37186;51.394;5.454;2023-04-06T12:32:34;11.40;67.70
26821;DHT22;37186;51.394;5.454;2023-04-06T12:35:34;11.40;67.20
26821;DHT22;37186;51.394;5.454;2023-04-06T12:38:35;11.40;67.60
26821;DHT22;37186;51.394;5.454;2023-04-06T12:41:38;11.40;67.40
26821;DHT22;37186;51.394;5.454;2023-04-06T12:44:41;11.40;67.50
26821;DHT22;37186;51.394;5.454;2023-04-06T12:47:43;11.40;67.20
26821;DHT22;37186;51.394;5.454;2023-04-06T12:50:43;11.40;67.30
26821;DHT22;37186;51.394;5.454;2023-04-06T12:53:44;11.40;67.10
26821;DHT22;37186;51.394;5.454;2023-04-06T12:56:44;11.40;67.00
26821;DHT22;37186;51.394;5.454;2023-04-06T12:59:45;11.50;67.90
26821;DHT22;37186;51.394;5.454;2023-04-06T13:02:46;11.50;68.50
26821;DHT22;37186;51.394;5.454;2023-04-06T13:05:47;11.40;67.30
26821;DHT22;37186;51.394;5.454;2023-04-06T13:08:48;11.40;67.50
26821;DHT22;37186;51.394;5.454;2023-04-06T13:11:50;11.40;68.50
26821;DHT22;37186;51.394;5.454;2023-04-06T13:14:51;11.40;68.10
26821;DHT22;37186;51.394;5.454;2023-04-06T13:17:52;11.40;67.80
26821;DHT22;37186;51.394;5.454;2023-04-06T13:20:53;11.50;67.90
26821;DHT22;37186;51.394;5.454;2023-04-06T13:23:55;11.50;67.60
26821;DHT22;37186;51.394;5.454;2023-04-06T13:26:56;11.50;67.70
26821;DHT22;37186;51.394;5.454;2023-04-06T13:29:57;11.50;68.30
26821;DHT22;37186;51.394;5.454;2023-04-06T13:32:57;11.50;67.80
26821;DHT22;37186;51.394;5.454;2023-04-06T13:35:59;11.50;68.00
26821;DHT22;37186;51.394;5.454;2023-04-06T13:39:00;11.50;68.00
26821;DHT22;37186;51.394;5.454;2023-04-06T13:42:00;11.50;68.30
26821;DHT22;37186;51.394;5.454;2023-04-06T13:45:01;11.50;68.30
26821;DHT22;37186;51.394;5.454;2023-04-06T13:48:02;11.50;68.40
26821;DHT22;37186;51.394;5.454;2023-04-06T13:51:13;11.50;69.40
26821;DHT22;37186;51.394;5.454;2023-04-06T13:54:14;11.50;67.90
26821;DHT22;37186;51.394;5.454;2023-04-06T13:57:14;11.50;68.00
26821;DHT22;37186;51.394;5.454;2023-04-06T14:00:15;11.50;68.10
26821;DHT22;37186;51.394;5.454;2023-04-06T14:03:15;11.50;68.10
26821;DHT22;37186;51.394;5.454;2023-04-06T14:06:16;11.50;68.20
26821;DHT22;37186;51.394;5.454;2023-04-06T14:09:17;11.50;69.30
26821;DHT22;37186;51.394;5.454;2023-04-06T14:12:17;11.50;68.00
26821;DHT22;37186;51.394;5.454;2023-04-06T14:15:18;11.50;68.70
26821;DHT22;37186;51.394;5.454;2023-04-06T14:18:19;11.50;68.50
26821;DHT22;37186;51.394;5.454;2023-04-06T14:21:20;11.50;68.60
26821;DHT22;37186;51.394;5.454;2023-04-06T14:24:20;11.50;68.40
26821;DHT22;37186;51.394;5.454;2023-04-06T14:27:21;11.50;68.10
26821;DHT22;37186;51.394;5.454;2023-04-06T14:30:22;11.50;68.40
26821;DHT22;37186;51.394;5.454;2023-04-06T14:33:23;11.50;68.60
26821;DHT22;37186;51.394;5.454;2023-04-06T14:36:24;11.50;68.90
26821;DHT22;37186;51.394;5.454;2023-04-06T14:39:26;11.40;68.60
26821;DHT22;37186;51.394;5.454;2023-04-06T14:42:27;11.40;68.20
26821;DHT22;37186;51.394;5.454;2023-04-06T14:45:28;11.40;68.40
26821;DHT22;37186;51.394;5.454;2023-04-06T14:48:28;11.50;68.40
26821;DHT22;37186;51.394;5.454;2023-04-06T14:51:29;11.40;68.90
26821;DHT22;37186;51.394;5.454;2023-04-06T14:54:30;11.50;68.80
26821;DHT22;37186;51.394;5.454;2023-04-06T14:57:30;11.40;68.70
26821;DHT22;37186;51.394;5.454;2023-04-06T15:00:31;11.40;68.50
26821;DHT22;37186;51.394;5.454;2023-04-06T15:03:32;11.40;68.40
26821;DHT22;37186;51.394;5.454;2023-04-06T15:06:32;11.40;68.40
26821;DHT22;37186;51.394;5.454;2023-04-06T15:09:33;11.40;68.30
26821;DHT22;37186;51.394;5.454;2023-04-06T15:12:35;11.40;68.30
26821;DHT22;37186;51.394;5.454;2023-04-06T15:15:36;11.40;68.40
26821;DHT22;37186;51.394;5.454;2023-04-06T15:18:37;11.40;68.30
26821;DHT22;37186;51.394;5.454;2023-04-06T15:21:37;11.40;68.20
26821;DHT22;37186;51.394;5.454;2023-04-06T15:24:38;11.40;68.30
26821;DHT22;37186;51.394;5.454;2023-04-06T15:27:38;11.40;68.50
26821;DHT22;37186;51.394;5.454;2023-04-06T15:30:39;11.40;68.40
26821;DHT22;37186;51.394;5.454;2023-04-06T15:33:40;11.40;68.30
26821;DHT22;37186;51.394;5.454;2023-04-06T15:36:40;11.40;68.30
26821;DHT22;37186;51.394;5.454;2023-04-06T15:39:43;11.40;68.30
26821;DHT22;37186;51.394;5.454;2023-04-06T15:42:44;11.40;68.60
26821;DHT22;37186;51.394;5.454;2023-04-06T15:45:44;11.40;68.60
26821;DHT22;37186;51.394;5.454;2023-04-06T15:48:45;11.40;68.90
26821;DHT22;37186;51.394;5.454;2023-04-06T15:51:47;11.40;69.10
26821;DHT22;37186;51.394;5.454;2023-04-06T15:54:48;11.40;68.90
26821;DHT22;37186;51.394;5.454;2023-04-06T15:57:48;11.40;69.80
26821;DHT22;37186;51.394;5.454;2023-04-06T16:00:49;11.40;68.90
26821;DHT22;37186;51.394;5.454;2023-04-06T16:03:50;11.40;69.40
26821;DHT22;37186;51.394;5.454;2023-04-06T16:06:50;11.40;68.60
26821;DHT22;37186;51.394;5.454;2023-04-06T16:09:51;11.40;68.90
26821;DHT22;37186;51.394;5.454;2023-04-06T16:12:52;11.40;68.60
26821;DHT22;37186;51.394;5.454;2023-04-06T16:15:52;11.40;68.80
26821;DHT22;37186;51.394;5.454;2023-04-06T16:18:53;11.40;68.80
26821;DHT22;37186;51.394;5.454;2023-04-06T16:21:53;11.40;69.00
26821;DHT22;37186;51.394;5.454;2023-04-06T16:24:54;11.40;68.90
26821;DHT22;37186;51.394;5.454;2023-04-06T16:27:55;11.40;68.70
26821;DHT22;37186;51.394;5.454;2023-04-06T16:30:55;11.40;68.80
26821;DHT22;37186;51.394;5.454;2023-04-06T16:33:57;11.40;68.80
26821;DHT22;37186;51.394;5.454;2023-04-06T16:36:58;11.40;69.00
26821;DHT22;37186;51.394;5.454;2023-04-06T16:39:59;11.40;69.80
26821;DHT22;37186;51.394;5.454;2023-04-06T16:42:59;11.40;69.30
26821;DHT22;37186;51.394;5.454;2023-04-06T16:46:00;11.40;70.30
26821;DHT22;37186;51.394;5.454;2023-04-06T16:49:02;11.40;69.00
26821;DHT22;37186;51.394;5.454;2023-04-06T16:52:04;11.40;69.10
26821;DHT22;37186;51.394;5.454;2023-04-06T16:55:06;11.40;69.00
26821;DHT22;37186;51.394;5.454;2023-04-06T16:58:06;11.40;69.20
26821;DHT22;37186;51.394;5.454;2023-04-06T17:01:07;11.50;69.40
26821;DHT22;37186;51.394;5.454;2023-04-06T17:04:07;11.40;68.90
26821;DHT22;37186;51.394;5.454;2023-04-06T17:07:08;11.40;69.10
26821;DHT22;37186;51.394;5.454;2023-04-06T17:10:10;11.40;69.10
26821;DHT22;37186;51.394;5.454;2023-04-06T17:13:10;11.50;69.60
26821;DHT22;37186;51.394;5.454;2023-04-06T17:16:11;11.40;69.50
26821;DHT22;37186;51.394;5.454;2023-04-06T17:19:11;11.40;69.20
26821;DHT22;37186;51.394;5.454;2023-04-06T17:22:12;11.40;69.00
26821;DHT22;37186;51.394;5.454;2023-04-06T17:25:13;11.40;70.20
26821;DHT22;37186;51.394;5.454;2023-04-06T17:28:14;11.50;69.40
26821;DHT22;37186;51.394;5.454;2023-04-06T17:31:14;11.40;69.80
26821;DHT22;37186;51.394;5.454;2023-04-06T17:34:15;11.40;69.70
26821;DHT22;37186;51.394;5.454;2023-04-06T17:37:15;11.50;69.20
26821;DHT22;37186;51.394;5.454;2023-04-06T17:40:16;11.40;69.40
26821;DHT22;37186;51.394;5.454;2023-04-06T17:43:17;11.40;69.10
26821;DHT22;37186;51.394;5.454;2023-04-06T17:46:17;11.40;69.20
26821;DHT22;37186;51.394;5.454;2023-04-06T17:49:19;11.40;69.20
26821;DHT22;37186;51.394;5.454;2023-04-06T17:52:20;11.40;69.30
26821;DHT22;37186;51.394;5.454;2023-04-06T17:55:21;11.50;69.50
26821;DHT22;37186;51.394;5.454;2023-04-06T17:58:21;11.40;69.10
26821;DHT22;37186;51.394;5.454;2023-04-06T18:01:22;11.50;69.20
26821;DHT22;37186;51.394;5.454;2023-04-06T18:04:22;11.40;69.30
26821;DHT22;37186;51.394;5.454;2023-04-06T18:07:23;11.50;69.40
26821;DHT22;37186;51.394;5.454;2023-04-06T18:10:24;11.50;69.50
26821;DHT22;37186;51.394;5.454;2023-04-06T18:13:24;11.50;69.30
26821;DHT22;37186;51.394;5.454;2023-04-06T18:16:25;11.50;70.50
26821;DHT22;37186;51.394;5.454;2023-04-06T18:19:26;11.50;69.30
26821;DHT22;37186;51.394;5.454;2023-04-06T18:22:28;11.50;69.40
26821;DHT22;37186;51.394;5.454;2023-04-06T18:25:28;11.50;69.40
26821;DHT22;37186;51.394;5.454;2023-04-06T18:28:29;11.50;69.30
26821;DHT22;37186;51.394;5.454;2023-04-06T18:31:30;11.50;69.40
26821;DHT22;37186;51.394;5.454;2023-04-06T18:34:32;11.50;69.50
26821;DHT22;37186;51.394;5.454;2023-04-06T18:37:32;11.50;70.10
26821;DHT22;37186;51.394;5.454;2023-04-06T18:40:35;11.50;69.30
26821;DHT22;37186;51.394;5.454;2023-04-06T18:43:35;11.50;69.40
26821;DHT22;37186;51.394;5.454;2023-04-06T18:46:36;11.50;69.50
26821;DHT22;37186;51.394;5.454;2023-04-06T18:49:38;11.50;69.40
26821;DHT22;37186;51.394;5.454;2023-04-06T18:52:39;11.50;69.30
26821;DHT22;37186;51.394;5.454;2023-04-06T18:55:41;11.50;69.30
26821;DHT22;37186;51.394;5.454;2023-04-06T18:58:41;11.50;70.20
26821;DHT22;37186;51.394;5.454;2023-04-06T19:01:42;11.50;69.40
26821;DHT22;37186;51.394;5.454;2023-04-06T19:04:44;11.50;69.40
26821;DHT22;37186;51.394;5.454;2023-04-06T19:07:45;11.50;69.30
26821;DHT22;37186;51.394;5.454;2023-04-06T19:10:51;11.50;69.30
26821;DHT22;37186;51.394;5.454;2023-04-06T19:13:53;11.60;69.30
26821;DHT22;37186;51.394;5.454;2023-04-06T19:16:53;11.60;69.40